EKRK/RKE METAR and TAF weather

Enter ICAO airport designator
Station Type Date Time Source
EKRK METAR 2024/04/18 07:20 UTC NOAA

EKRK 180720Z AUTO 28009KT 9999 NCD 08/02 Q1013


Station Type Date Time Source
EKRK Decoded METAR 2024/04/18 07:20 UTC NOAA

Koebenhavn / Roskilde, Denmark (EKRK) 55-35N 012-08E 44M
Apr 18, 2024 - 03:20 AM EDT / 2024.04.18 0720 UTC
Wind: from the W (280 degrees) at 10 MPH (9 KT):0
Visibility: greater than 7 mile(s):0
Temperature: 46 F (8 C)
Dew Point: 35 F (2 C)
Relative Humidity: 65%
Pressure (altimeter): 29.91 in. Hg (1013 hPa)
ob: EKRK 180720Z AUTO 28009KT 9999 NCD 08/02 Q1013
cycle: 7

Station Type Date Time Source
EKRK TAF 2020/10/13 06:33 UTC NOAA